Nashville, Tennessee
Traffic Map
Current Weather Conditions
Nashville, Tennessee
Overcast
Overcast
-1°
Feels Like: -3°
Wind Chill: -3° Ceiling: 7000
Heat Index: -1° Visibility: 10mi
Dew Point: -11° Wind: 5mph
Humidity: 47% Direction: 50° (NE)
Pressure: 30.62in Gusts: 0mph
Raw Report DataKBNA 281553Z 05004KT 10SM BKN070 OVC100 M01/M11 A3062 RMK AO2 SLP374 T10061106
Traffic Incident Summary
Active as of:
Severity:
Category:
InformationThere was an issue retrieving the traffic information for this location. Please try a different location or try again shortly.
Advertisements
Track Severe Weather on mobile